sensor_id;sensor_type;location;lat;lon;timestamp;P1;durP1;ratioP1;P2;durP2;ratioP2
67571;SDS011;54397;47.506;19.158;2022-10-31T00:02:16;66.47;;;36.20;;
67571;SDS011;54397;47.506;19.158;2022-10-31T00:05:44;59.78;;;33.78;;
67571;SDS011;54397;47.506;19.158;2022-10-31T00:09:08;64.53;;;34.83;;
67571;SDS011;54397;47.506;19.158;2022-10-31T00:12:31;67.07;;;35.60;;
67571;SDS011;54397;47.506;19.158;2022-10-31T00:15:52;57.90;;;34.45;;
67571;SDS011;54397;47.506;19.158;2022-10-31T00:19:14;66.78;;;35.17;;
67571;SDS011;54397;47.506;19.158;2022-10-31T00:22:38;68.82;;;34.75;;
67571;SDS011;54397;47.506;19.158;2022-10-31T00:26:01;73.18;;;34.58;;
67571;SDS011;54397;47.506;19.158;2022-10-31T00:29:26;59.10;;;33.35;;
67571;SDS011;54397;47.506;19.158;2022-10-31T00:32:47;52.17;;;32.30;;
67571;SDS011;54397;47.506;19.158;2022-10-31T00:36:13;64.53;;;33.78;;
67571;SDS011;54397;47.506;19.158;2022-10-31T00:39:35;64.55;;;35.05;;
67571;SDS011;54397;47.506;19.158;2022-10-31T00:42:57;65.72;;;34.35;;
67571;SDS011;54397;47.506;19.158;2022-10-31T00:46:21;69.10;;;34.17;;
67571;SDS011;54397;47.506;19.158;2022-10-31T00:49:43;68.10;;;34.38;;
67571;SDS011;54397;47.506;19.158;2022-10-31T00:53:04;63.75;;;34.78;;
67571;SDS011;54397;47.506;19.158;2022-10-31T00:56:26;64.80;;;33.47;;
67571;SDS011;54397;47.506;19.158;2022-10-31T00:59:50;84.20;;;41.60;;
67571;SDS011;54397;47.506;19.158;2022-10-31T01:03:15;61.47;;;33.28;;
67571;SDS011;54397;47.506;19.158;2022-10-31T01:06:37;57.28;;;33.20;;
67571;SDS011;54397;47.506;19.158;2022-10-31T01:10:02;66.75;;;34.47;;
67571;SDS011;54397;47.506;19.158;2022-10-31T01:13:24;64.47;;;33.42;;
67571;SDS011;54397;47.506;19.158;2022-10-31T01:16:48;68.47;;;34.03;;
67571;SDS011;54397;47.506;19.158;2022-10-31T01:20:13;59.08;;;32.60;;
67571;SDS011;54397;47.506;19.158;2022-10-31T01:23:38;59.40;;;32.05;;
67571;SDS011;54397;47.506;19.158;2022-10-31T01:27:02;60.00;;;31.42;;
67571;SDS011;54397;47.506;19.158;2022-10-31T01:30:26;57.33;;;31.10;;
67571;SDS011;54397;47.506;19.158;2022-10-31T01:33:50;57.53;;;31.27;;
67571;SDS011;54397;47.506;19.158;2022-10-31T01:37:17;59.72;;;32.08;;
67571;SDS011;54397;47.506;19.158;2022-10-31T01:40:38;59.63;;;30.75;;
67571;SDS011;54397;47.506;19.158;2022-10-31T01:47:40;52.60;;;27.58;;
67571;SDS011;54397;47.506;19.158;2022-10-31T01:51:05;48.78;;;26.90;;
67571;SDS011;54397;47.506;19.158;2022-10-31T01:54:29;46.42;;;25.25;;
67571;SDS011;54397;47.506;19.158;2022-10-31T01:57:59;44.97;;;23.73;;
67571;SDS011;54397;47.506;19.158;2022-10-31T02:01:25;43.50;;;22.48;;
67571;SDS011;54397;47.506;19.158;2022-10-31T02:04:47;44.70;;;24.25;;
67571;SDS011;54397;47.506;19.158;2022-10-31T02:08:21;44.95;;;22.80;;
67571;SDS011;54397;47.506;19.158;2022-10-31T02:11:47;40.13;;;22.45;;
67571;SDS011;54397;47.506;19.158;2022-10-31T02:15:13;46.38;;;23.38;;
67571;SDS011;54397;47.506;19.158;2022-10-31T02:18:35;38.53;;;21.75;;
67571;SDS011;54397;47.506;19.158;2022-10-31T02:21:59;37.83;;;21.58;;
67571;SDS011;54397;47.506;19.158;2022-10-31T02:33:25;38.70;;;20.10;;
67571;SDS011;54397;47.506;19.158;2022-10-31T02:36:57;36.83;;;20.50;;
67571;SDS011;54397;47.506;19.158;2022-10-31T02:40:39;49.03;;;21.10;;
67571;SDS011;54397;47.506;19.158;2022-10-31T02:47:55;36.78;;;20.02;;
67571;SDS011;54397;47.506;19.158;2022-10-31T02:51:22;36.40;;;19.65;;
67571;SDS011;54397;47.506;19.158;2022-10-31T02:54:46;33.55;;;18.52;;
67571;SDS011;54397;47.506;19.158;2022-10-31T02:58:12;31.88;;;18.58;;
67571;SDS011;54397;47.506;19.158;2022-10-31T03:12:07;35.72;;;21.08;;
67571;SDS011;54397;47.506;19.158;2022-10-31T03:15:34;33.80;;;19.83;;
67571;SDS011;54397;47.506;19.158;2022-10-31T03:19:10;32.13;;;19.63;;
67571;SDS011;54397;47.506;19.158;2022-10-31T03:22:37;48.97;;;27.92;;
67571;SDS011;54397;47.506;19.158;2022-10-31T03:26:04;41.95;;;23.63;;
67571;SDS011;54397;47.506;19.158;2022-10-31T03:29:29;56.83;;;32.17;;
67571;SDS011;54397;47.506;19.158;2022-10-31T03:32:55;37.42;;;20.75;;
67571;SDS011;54397;47.506;19.158;2022-10-31T03:36:23;38.25;;;19.80;;
67571;SDS011;54397;47.506;19.158;2022-10-31T03:39:48;36.47;;;18.95;;
67571;SDS011;54397;47.506;19.158;2022-10-31T03:43:12;32.95;;;19.40;;
67571;SDS011;54397;47.506;19.158;2022-10-31T03:46:40;32.60;;;19.15;;
67571;SDS011;54397;47.506;19.158;2022-10-31T03:50:03;37.50;;;19.77;;
67571;SDS011;54397;47.506;19.158;2022-10-31T03:53:33;29.25;;;17.95;;
67571;SDS011;54397;47.506;19.158;2022-10-31T03:57:05;33.20;;;18.85;;
67571;SDS011;54397;47.506;19.158;2022-10-31T04:00:35;32.67;;;17.70;;
67571;SDS011;54397;47.506;19.158;2022-10-31T04:04:02;32.10;;;19.57;;
67571;SDS011;54397;47.506;19.158;2022-10-31T04:07:26;34.88;;;18.98;;
67571;SDS011;54397;47.506;19.158;2022-10-31T04:10:51;34.90;;;21.77;;
67571;SDS011;54397;47.506;19.158;2022-10-31T04:14:15;30.95;;;18.42;;
67571;SDS011;54397;47.506;19.158;2022-10-31T04:17:39;28.77;;;18.60;;
67571;SDS011;54397;47.506;19.158;2022-10-31T04:21:05;33.85;;;18.80;;
67571;SDS011;54397;47.506;19.158;2022-10-31T04:24:29;28.17;;;17.58;;
67571;SDS011;54397;47.506;19.158;2022-10-31T04:27:51;34.28;;;19.35;;
67571;SDS011;54397;47.506;19.158;2022-10-31T04:31:13;33.60;;;18.67;;
67571;SDS011;54397;47.506;19.158;2022-10-31T04:34:35;32.75;;;18.42;;
67571;SDS011;54397;47.506;19.158;2022-10-31T04:37:56;30.98;;;18.42;;
67571;SDS011;54397;47.506;19.158;2022-10-31T04:41:18;30.92;;;18.60;;
67571;SDS011;54397;47.506;19.158;2022-10-31T04:44:39;27.33;;;17.27;;
67571;SDS011;54397;47.506;19.158;2022-10-31T04:48:01;31.00;;;17.65;;
67571;SDS011;54397;47.506;19.158;2022-10-31T04:51:23;33.83;;;20.05;;
67571;SDS011;54397;47.506;19.158;2022-10-31T04:54:45;45.83;;;28.80;;
67571;SDS011;54397;47.506;19.158;2022-10-31T04:58:06;38.70;;;22.67;;
67571;SDS011;54397;47.506;19.158;2022-10-31T05:01:28;32.75;;;17.40;;
67571;SDS011;54397;47.506;19.158;2022-10-31T05:04:52;27.90;;;16.05;;
67571;SDS011;54397;47.506;19.158;2022-10-31T05:08:17;30.90;;;16.63;;
67571;SDS011;54397;47.506;19.158;2022-10-31T05:11:38;26.65;;;16.80;;
67571;SDS011;54397;47.506;19.158;2022-10-31T05:15:00;33.00;;;18.55;;
67571;SDS011;54397;47.506;19.158;2022-10-31T05:18:22;31.63;;;16.98;;
67571;SDS011;54397;47.506;19.158;2022-10-31T05:21:44;32.38;;;17.98;;
67571;SDS011;54397;47.506;19.158;2022-10-31T05:25:06;30.70;;;17.33;;
67571;SDS011;54397;47.506;19.158;2022-10-31T05:28:30;28.85;;;17.08;;
67571;SDS011;54397;47.506;19.158;2022-10-31T05:31:54;29.90;;;17.67;;
67571;SDS011;54397;47.506;19.158;2022-10-31T05:35:16;29.27;;;17.17;;
67571;SDS011;54397;47.506;19.158;2022-10-31T05:38:46;25.08;;;16.08;;
67571;SDS011;54397;47.506;19.158;2022-10-31T05:42:07;23.13;;;15.02;;
67571;SDS011;54397;47.506;19.158;2022-10-31T05:45:31;24.60;;;14.82;;
67571;SDS011;54397;47.506;19.158;2022-10-31T05:48:53;24.77;;;14.43;;
67571;SDS011;54397;47.506;19.158;2022-10-31T05:52:19;25.08;;;14.02;;
67571;SDS011;54397;47.506;19.158;2022-10-31T05:55:41;23.70;;;13.90;;
67571;SDS011;54397;47.506;19.158;2022-10-31T05:59:04;29.58;;;15.27;;
67571;SDS011;54397;47.506;19.158;2022-10-31T06:02:25;24.90;;;14.93;;
67571;SDS011;54397;47.506;19.158;2022-10-31T06:05:47;27.33;;;15.57;;
67571;SDS011;54397;47.506;19.158;2022-10-31T06:09:15;23.35;;;15.40;;
67571;SDS011;54397;47.506;19.158;2022-10-31T06:12:36;26.77;;;15.20;;
67571;SDS011;54397;47.506;19.158;2022-10-31T06:16:01;24.52;;;15.10;;
67571;SDS011;54397;47.506;19.158;2022-10-31T06:19:25;25.88;;;14.68;;
67571;SDS011;54397;47.506;19.158;2022-10-31T06:22:47;22.60;;;14.30;;
67571;SDS011;54397;47.506;19.158;2022-10-31T06:26:11;22.63;;;13.75;;
67571;SDS011;54397;47.506;19.158;2022-10-31T06:29:36;26.15;;;15.13;;
67571;SDS011;54397;47.506;19.158;2022-10-31T06:33:03;23.42;;;14.65;;
67571;SDS011;54397;47.506;19.158;2022-10-31T06:39:52;23.58;;;14.05;;
67571;SDS011;54397;47.506;19.158;2022-10-31T06:43:13;28.63;;;17.63;;
67571;SDS011;54397;47.506;19.158;2022-10-31T06:46:35;54.95;;;34.72;;
67571;SDS011;54397;47.506;19.158;2022-10-31T06:50:00;26.35;;;16.75;;
67571;SDS011;54397;47.506;19.158;2022-10-31T06:53:23;26.27;;;15.40;;
67571;SDS011;54397;47.506;19.158;2022-10-31T06:56:45;28.60;;;14.50;;
67571;SDS011;54397;47.506;19.158;2022-10-31T07:00:13;23.42;;;14.35;;
67571;SDS011;54397;47.506;19.158;2022-10-31T07:03:37;22.75;;;14.43;;
67571;SDS011;54397;47.506;19.158;2022-10-31T07:07:01;23.58;;;14.38;;
67571;SDS011;54397;47.506;19.158;2022-10-31T07:10:24;25.83;;;15.25;;
67571;SDS011;54397;47.506;19.158;2022-10-31T07:13:47;26.38;;;15.35;;
67571;SDS011;54397;47.506;19.158;2022-10-31T07:17:11;24.17;;;15.40;;
67571;SDS011;54397;47.506;19.158;2022-10-31T07:20:35;26.73;;;16.02;;
67571;SDS011;54397;47.506;19.158;2022-10-31T07:23:59;22.60;;;14.45;;
67571;SDS011;54397;47.506;19.158;2022-10-31T07:27:23;26.25;;;15.77;;
67571;SDS011;54397;47.506;19.158;2022-10-31T07:30:48;28.17;;;15.27;;
67571;SDS011;54397;47.506;19.158;2022-10-31T07:34:11;24.30;;;14.75;;
67571;SDS011;54397;47.506;19.158;2022-10-31T07:37:32;27.15;;;16.55;;
67571;SDS011;54397;47.506;19.158;2022-10-31T07:40:54;23.50;;;14.30;;
67571;SDS011;54397;47.506;19.158;2022-10-31T07:44:18;25.25;;;15.13;;
67571;SDS011;54397;47.506;19.158;2022-10-31T07:47:46;25.33;;;15.68;;
67571;SDS011;54397;47.506;19.158;2022-10-31T07:51:14;26.90;;;15.90;;
67571;SDS011;54397;47.506;19.158;2022-10-31T07:54:36;25.30;;;14.77;;
67571;SDS011;54397;47.506;19.158;2022-10-31T07:58:00;24.45;;;14.20;;
67571;SDS011;54397;47.506;19.158;2022-10-31T08:01:24;24.42;;;14.18;;
67571;SDS011;54397;47.506;19.158;2022-10-31T08:04:46;23.90;;;14.48;;
67571;SDS011;54397;47.506;19.158;2022-10-31T08:08:10;26.33;;;15.02;;
67571;SDS011;54397;47.506;19.158;2022-10-31T08:11:32;25.60;;;15.30;;
67571;SDS011;54397;47.506;19.158;2022-10-31T08:14:53;29.90;;;15.95;;
67571;SDS011;54397;47.506;19.158;2022-10-31T08:18:20;28.13;;;15.75;;
67571;SDS011;54397;47.506;19.158;2022-10-31T08:21:47;30.80;;;16.38;;
67571;SDS011;54397;47.506;19.158;2022-10-31T08:25:12;34.00;;;17.23;;
67571;SDS011;54397;47.506;19.158;2022-10-31T08:28:35;34.72;;;18.25;;
67571;SDS011;54397;47.506;19.158;2022-10-31T08:31:59;32.53;;;18.02;;
67571;SDS011;54397;47.506;19.158;2022-10-31T08:35:21;40.15;;;19.08;;
67571;SDS011;54397;47.506;19.158;2022-10-31T08:38:42;38.92;;;19.55;;
67571;SDS011;54397;47.506;19.158;2022-10-31T08:42:09;44.63;;;20.63;;
67571;SDS011;54397;47.506;19.158;2022-10-31T08:45:31;42.50;;;20.08;;
67571;SDS011;54397;47.506;19.158;2022-10-31T08:48:56;40.40;;;20.65;;
67571;SDS011;54397;47.506;19.158;2022-10-31T08:52:20;43.25;;;21.88;;
67571;SDS011;54397;47.506;19.158;2022-10-31T08:56:04;45.42;;;21.90;;
67571;SDS011;54397;47.506;19.158;2022-10-31T08:59:28;48.10;;;22.27;;
67571;SDS011;54397;47.506;19.158;2022-10-31T09:03:00;39.45;;;19.77;;
67571;SDS011;54397;47.506;19.158;2022-10-31T09:06:25;41.53;;;21.58;;
67571;SDS011;54397;47.506;19.158;2022-10-31T09:09:50;42.60;;;23.23;;
67571;SDS011;54397;47.506;19.158;2022-10-31T09:13:15;51.55;;;28.48;;
67571;SDS011;54397;47.506;19.158;2022-10-31T09:16:41;39.90;;;21.13;;
67571;SDS011;54397;47.506;19.158;2022-10-31T09:20:02;59.42;;;27.58;;
67571;SDS011;54397;47.506;19.158;2022-10-31T09:23:24;49.88;;;24.83;;
67571;SDS011;54397;47.506;19.158;2022-10-31T09:26:45;41.75;;;22.15;;
67571;SDS011;54397;47.506;19.158;2022-10-31T09:30:07;35.65;;;19.88;;
67571;SDS011;54397;47.506;19.158;2022-10-31T09:33:29;32.35;;;19.55;;
67571;SDS011;54397;47.506;19.158;2022-10-31T09:36:56;33.20;;;18.27;;
67571;SDS011;54397;47.506;19.158;2022-10-31T09:40:20;38.42;;;18.80;;
67571;SDS011;54397;47.506;19.158;2022-10-31T09:51:08;38.00;;;19.73;;
67571;SDS011;54397;47.506;19.158;2022-10-31T09:54:40;42.65;;;21.10;;
67571;SDS011;54397;47.506;19.158;2022-10-31T09:58:13;38.85;;;20.42;;
67571;SDS011;54397;47.506;19.158;2022-10-31T10:01:51;34.15;;;18.15;;
67571;SDS011;54397;47.506;19.158;2022-10-31T10:05:22;36.80;;;18.95;;
67571;SDS011;54397;47.506;19.158;2022-10-31T10:08:53;34.78;;;17.95;;
67571;SDS011;54397;47.506;19.158;2022-10-31T10:12:38;33.47;;;18.77;;
67571;SDS011;54397;47.506;19.158;2022-10-31T10:24:03;33.42;;;17.40;;
67571;SDS011;54397;47.506;19.158;2022-10-31T10:27:53;33.85;;;19.13;;
67571;SDS011;54397;47.506;19.158;2022-10-31T10:31:35;38.70;;;19.25;;
67571;SDS011;54397;47.506;19.158;2022-10-31T10:38:51;30.08;;;17.63;;
67571;SDS011;54397;47.506;19.158;2022-10-31T10:42:18;32.88;;;18.23;;
67571;SDS011;54397;47.506;19.158;2022-10-31T10:49:56;37.88;;;19.55;;
67571;SDS011;54397;47.506;19.158;2022-10-31T10:53:29;69.90;;;22.83;;
67571;SDS011;54397;47.506;19.158;2022-10-31T11:00:53;30.33;;;18.10;;
67571;SDS011;54397;47.506;19.158;2022-10-31T11:07:56;27.85;;;17.17;;
67571;SDS011;54397;47.506;19.158;2022-10-31T11:11:30;45.35;;;19.30;;
67571;SDS011;54397;47.506;19.158;2022-10-31T11:14:57;30.83;;;15.77;;
67571;SDS011;54397;47.506;19.158;2022-10-31T11:18:24;22.05;;;14.25;;
67571;SDS011;54397;47.506;19.158;2022-10-31T11:21:48;37.10;;;14.60;;
67571;SDS011;54397;47.506;19.158;2022-10-31T11:25:24;22.90;;;13.70;;
67571;SDS011;54397;47.506;19.158;2022-10-31T11:28:58;25.50;;;14.70;;
67571;SDS011;54397;47.506;19.158;2022-10-31T11:35:48;26.05;;;14.52;;
67571;SDS011;54397;47.506;19.158;2022-10-31T11:39:18;25.17;;;14.77;;
67571;SDS011;54397;47.506;19.158;2022-10-31T11:42:47;22.13;;;14.27;;
67571;SDS011;54397;47.506;19.158;2022-10-31T11:46:14;30.85;;;14.23;;
67571;SDS011;54397;47.506;19.158;2022-10-31T11:50:09;40.67;;;18.10;;
67571;SDS011;54397;47.506;19.158;2022-10-31T11:53:33;24.60;;;15.43;;
67571;SDS011;54397;47.506;19.158;2022-10-31T11:56:55;23.67;;;14.65;;
67571;SDS011;54397;47.506;19.158;2022-10-31T12:00:21;26.35;;;15.38;;
67571;SDS011;54397;47.506;19.158;2022-10-31T12:07:18;25.48;;;15.23;;
67571;SDS011;54397;47.506;19.158;2022-10-31T12:14:32;22.88;;;15.23;;
67571;SDS011;54397;47.506;19.158;2022-10-31T12:26:25;31.58;;;14.73;;
67571;SDS011;54397;47.506;19.158;2022-10-31T12:44:46;36.35;;;16.48;;
67571;SDS011;54397;47.506;19.158;2022-10-31T12:55:30;24.75;;;14.18;;
67571;SDS011;54397;47.506;19.158;2022-10-31T12:59:16;28.90;;;22.30;;
67571;SDS011;54397;47.506;19.158;2022-10-31T13:03:03;19.80;;;12.57;;
67571;SDS011;54397;47.506;19.158;2022-10-31T13:06:42;18.23;;;12.40;;
67571;SDS011;54397;47.506;19.158;2022-10-31T13:17:53;19.73;;;12.23;;
67571;SDS011;54397;47.506;19.158;2022-10-31T13:21:24;17.40;;;12.15;;
67571;SDS011;54397;47.506;19.158;2022-10-31T13:24:57;17.63;;;11.57;;
67571;SDS011;54397;47.506;19.158;2022-10-31T13:28:31;18.45;;;12.40;;
67571;SDS011;54397;47.506;19.158;2022-10-31T13:31:57;21.02;;;11.65;;
67571;SDS011;54397;47.506;19.158;2022-10-31T13:35:32;17.75;;;11.55;;
67571;SDS011;54397;47.506;19.158;2022-10-31T13:39:12;17.10;;;11.40;;
67571;SDS011;54397;47.506;19.158;2022-10-31T13:42:57;19.02;;;12.32;;
67571;SDS011;54397;47.506;19.158;2022-10-31T13:46:39;18.92;;;12.85;;
67571;SDS011;54397;47.506;19.158;2022-10-31T14:04:38;32.42;;;21.38;;
67571;SDS011;54397;47.506;19.158;2022-10-31T14:08:06;23.00;;;15.40;;
67571;SDS011;54397;47.506;19.158;2022-10-31T14:11:41;26.63;;;15.05;;
67571;SDS011;54397;47.506;19.158;2022-10-31T14:15:16;20.42;;;13.75;;
67571;SDS011;54397;47.506;19.158;2022-10-31T14:18:39;21.35;;;14.10;;
67571;SDS011;54397;47.506;19.158;2022-10-31T14:22:18;20.13;;;12.70;;
67571;SDS011;54397;47.506;19.158;2022-10-31T14:25:42;18.90;;;12.18;;
67571;SDS011;54397;47.506;19.158;2022-10-31T14:32:34;20.98;;;12.77;;
67571;SDS011;54397;47.506;19.158;2022-10-31T14:50:24;21.75;;;13.45;;
67571;SDS011;54397;47.506;19.158;2022-10-31T14:53:51;23.05;;;15.48;;
67571;SDS011;54397;47.506;19.158;2022-10-31T14:57:22;22.30;;;15.65;;
67571;SDS011;54397;47.506;19.158;2022-10-31T15:00:51;24.08;;;14.80;;
67571;SDS011;54397;47.506;19.158;2022-10-31T15:04:19;22.65;;;16.13;;
67571;SDS011;54397;47.506;19.158;2022-10-31T15:11:17;21.73;;;13.93;;
67571;SDS011;54397;47.506;19.158;2022-10-31T15:14:41;21.08;;;13.18;;
67571;SDS011;54397;47.506;19.158;2022-10-31T15:18:03;24.40;;;13.07;;
67571;SDS011;54397;47.506;19.158;2022-10-31T15:21:26;19.65;;;13.60;;
67571;SDS011;54397;47.506;19.158;2022-10-31T15:24:49;23.33;;;13.73;;
67571;SDS011;54397;47.506;19.158;2022-10-31T15:28:24;22.40;;;12.77;;
67571;SDS011;54397;47.506;19.158;2022-10-31T15:31:53;19.95;;;13.50;;
67571;SDS011;54397;47.506;19.158;2022-10-31T15:35:23;21.30;;;13.45;;
67571;SDS011;54397;47.506;19.158;2022-10-31T15:38:47;19.40;;;12.57;;
67571;SDS011;54397;47.506;19.158;2022-10-31T15:45:58;27.15;;;16.73;;
67571;SDS011;54397;47.506;19.158;2022-10-31T15:49:26;21.35;;;13.98;;
67571;SDS011;54397;47.506;19.158;2022-10-31T15:52:48;22.30;;;11.88;;
67571;SDS011;54397;47.506;19.158;2022-10-31T15:56:13;21.25;;;13.07;;
67571;SDS011;54397;47.506;19.158;2022-10-31T15:59:44;19.33;;;12.00;;
67571;SDS011;54397;47.506;19.158;2022-10-31T16:03:21;20.58;;;12.82;;
67571;SDS011;54397;47.506;19.158;2022-10-31T16:10:43;21.58;;;12.13;;
67571;SDS011;54397;47.506;19.158;2022-10-31T16:17:32;22.48;;;13.43;;
67571;SDS011;54397;47.506;19.158;2022-10-31T16:20:54;25.13;;;14.73;;
67571;SDS011;54397;47.506;19.158;2022-10-31T16:27:53;31.48;;;15.25;;
67571;SDS011;54397;47.506;19.158;2022-10-31T16:31:24;29.58;;;17.13;;
67571;SDS011;54397;47.506;19.158;2022-10-31T16:38:30;30.63;;;18.50;;
67571;SDS011;54397;47.506;19.158;2022-10-31T16:41:57;32.28;;;18.65;;
67571;SDS011;54397;47.506;19.158;2022-10-31T16:48:48;28.42;;;17.00;;
67571;SDS011;54397;47.506;19.158;2022-10-31T16:52:10;28.55;;;16.73;;
67571;SDS011;54397;47.506;19.158;2022-10-31T16:55:32;30.08;;;18.08;;
67571;SDS011;54397;47.506;19.158;2022-10-31T16:58:56;29.27;;;16.50;;
67571;SDS011;54397;47.506;19.158;2022-10-31T17:02:18;27.48;;;15.27;;
67571;SDS011;54397;47.506;19.158;2022-10-31T17:05:42;27.10;;;15.88;;
67571;SDS011;54397;47.506;19.158;2022-10-31T17:09:06;31.33;;;17.58;;
67571;SDS011;54397;47.506;19.158;2022-10-31T17:12:30;29.13;;;17.13;;
67571;SDS011;54397;47.506;19.158;2022-10-31T17:15:55;33.22;;;17.60;;
67571;SDS011;54397;47.506;19.158;2022-10-31T17:19:20;29.35;;;17.10;;
67571;SDS011;54397;47.506;19.158;2022-10-31T17:22:42;27.88;;;15.45;;
67571;SDS011;54397;47.506;19.158;2022-10-31T17:26:04;26.35;;;14.93;;
67571;SDS011;54397;47.506;19.158;2022-10-31T17:29:26;26.35;;;13.88;;
67571;SDS011;54397;47.506;19.158;2022-10-31T17:32:48;23.65;;;14.15;;
67571;SDS011;54397;47.506;19.158;2022-10-31T17:36:10;26.88;;;12.95;;
67571;SDS011;54397;47.506;19.158;2022-10-31T17:39:32;22.50;;;12.70;;
67571;SDS011;54397;47.506;19.158;2022-10-31T17:42:56;20.88;;;11.52;;
67571;SDS011;54397;47.506;19.158;2022-10-31T17:46:18;25.73;;;13.90;;
67571;SDS011;54397;47.506;19.158;2022-10-31T17:49:40;21.90;;;12.77;;
67571;SDS011;54397;47.506;19.158;2022-10-31T17:53:01;18.50;;;11.75;;
67571;SDS011;54397;47.506;19.158;2022-10-31T17:56:23;19.95;;;12.73;;
67571;SDS011;54397;47.506;19.158;2022-10-31T17:59:45;21.08;;;12.80;;
67571;SDS011;54397;47.506;19.158;2022-10-31T18:03:09;25.02;;;13.00;;
67571;SDS011;54397;47.506;19.158;2022-10-31T18:06:31;22.23;;;12.52;;
67571;SDS011;54397;47.506;19.158;2022-10-31T18:09:52;24.63;;;13.73;;
67571;SDS011;54397;47.506;19.158;2022-10-31T18:13:14;24.27;;;13.85;;
67571;SDS011;54397;47.506;19.158;2022-10-31T18:16:35;26.40;;;14.02;;
67571;SDS011;54397;47.506;19.158;2022-10-31T18:20:02;29.65;;;14.82;;
67571;SDS011;54397;47.506;19.158;2022-10-31T18:23:24;28.02;;;14.27;;
67571;SDS011;54397;47.506;19.158;2022-10-31T18:26:48;23.40;;;13.93;;
67571;SDS011;54397;47.506;19.158;2022-10-31T18:30:12;25.52;;;13.90;;
67571;SDS011;54397;47.506;19.158;2022-10-31T18:33:34;26.02;;;13.80;;
67571;SDS011;54397;47.506;19.158;2022-10-31T18:36:58;32.20;;;14.57;;
67571;SDS011;54397;47.506;19.158;2022-10-31T18:40:22;26.88;;;14.85;;
67571;SDS011;54397;47.506;19.158;2022-10-31T18:43:46;25.45;;;13.48;;
67571;SDS011;54397;47.506;19.158;2022-10-31T18:47:10;30.13;;;15.27;;
67571;SDS011;54397;47.506;19.158;2022-10-31T18:50:34;46.67;;;22.40;;
67571;SDS011;54397;47.506;19.158;2022-10-31T18:53:59;44.22;;;21.35;;
67571;SDS011;54397;47.506;19.158;2022-10-31T18:57:21;29.50;;;16.92;;
67571;SDS011;54397;47.506;19.158;2022-10-31T19:00:43;27.65;;;14.23;;
67571;SDS011;54397;47.506;19.158;2022-10-31T19:04:08;25.13;;;14.23;;
67571;SDS011;54397;47.506;19.158;2022-10-31T19:07:30;26.20;;;13.88;;
67571;SDS011;54397;47.506;19.158;2022-10-31T19:11:02;24.33;;;14.38;;
67571;SDS011;54397;47.506;19.158;2022-10-31T19:14:30;30.38;;;16.30;;
67571;SDS011;54397;47.506;19.158;2022-10-31T19:17:56;45.83;;;20.98;;
67571;SDS011;54397;47.506;19.158;2022-10-31T19:21:18;31.17;;;15.52;;
67571;SDS011;54397;47.506;19.158;2022-10-31T19:24:43;33.35;;;19.40;;
67571;SDS011;54397;47.506;19.158;2022-10-31T19:28:04;39.28;;;16.73;;
67571;SDS011;54397;47.506;19.158;2022-10-31T19:31:26;37.03;;;18.27;;
67571;SDS011;54397;47.506;19.158;2022-10-31T19:34:50;35.85;;;18.60;;
67571;SDS011;54397;47.506;19.158;2022-10-31T19:38:12;38.95;;;18.48;;
67571;SDS011;54397;47.506;19.158;2022-10-31T19:41:34;32.67;;;18.73;;
67571;SDS011;54397;47.506;19.158;2022-10-31T19:44:58;32.63;;;16.95;;
67571;SDS011;54397;47.506;19.158;2022-10-31T19:48:20;41.42;;;17.33;;
67571;SDS011;54397;47.506;19.158;2022-10-31T19:51:42;41.53;;;18.70;;
67571;SDS011;54397;47.506;19.158;2022-10-31T19:55:03;35.10;;;18.85;;
67571;SDS011;54397;47.506;19.158;2022-10-31T19:58:25;37.33;;;19.65;;
67571;SDS011;54397;47.506;19.158;2022-10-31T20:01:49;43.20;;;20.60;;
67571;SDS011;54397;47.506;19.158;2022-10-31T20:05:11;45.60;;;20.35;;
67571;SDS011;54397;47.506;19.158;2022-10-31T20:08:33;70.38;;;27.40;;
67571;SDS011;54397;47.506;19.158;2022-10-31T20:11:59;76.65;;;28.38;;
67571;SDS011;54397;47.506;19.158;2022-10-31T20:15:21;47.83;;;21.90;;
67571;SDS011;54397;47.506;19.158;2022-10-31T20:18:45;39.58;;;19.75;;
67571;SDS011;54397;47.506;19.158;2022-10-31T20:22:09;43.22;;;21.02;;
67571;SDS011;54397;47.506;19.158;2022-10-31T20:25:34;40.63;;;18.35;;
67571;SDS011;54397;47.506;19.158;2022-10-31T20:28:56;40.92;;;19.50;;
67571;SDS011;54397;47.506;19.158;2022-10-31T20:32:19;36.88;;;19.02;;
67571;SDS011;54397;47.506;19.158;2022-10-31T20:35:43;40.33;;;19.88;;
67571;SDS011;54397;47.506;19.158;2022-10-31T20:39:05;33.97;;;17.67;;
67571;SDS011;54397;47.506;19.158;2022-10-31T20:42:26;38.75;;;18.15;;
67571;SDS011;54397;47.506;19.158;2022-10-31T20:45:54;36.83;;;17.00;;
67571;SDS011;54397;47.506;19.158;2022-10-31T20:49:19;37.45;;;17.85;;
67571;SDS011;54397;47.506;19.158;2022-10-31T20:52:45;32.55;;;16.85;;
67571;SDS011;54397;47.506;19.158;2022-10-31T20:56:08;43.85;;;20.00;;
67571;SDS011;54397;47.506;19.158;2022-10-31T20:59:34;58.85;;;33.42;;
67571;SDS011;54397;47.506;19.158;2022-10-31T21:02:56;38.35;;;19.30;;
67571;SDS011;54397;47.506;19.158;2022-10-31T21:06:18;44.22;;;19.73;;
67571;SDS011;54397;47.506;19.158;2022-10-31T21:09:43;45.55;;;20.05;;
67571;SDS011;54397;47.506;19.158;2022-10-31T21:13:07;43.38;;;19.10;;
67571;SDS011;54397;47.506;19.158;2022-10-31T21:16:30;59.75;;;23.27;;
67571;SDS011;54397;47.506;19.158;2022-10-31T21:19:55;59.72;;;22.90;;
67571;SDS011;54397;47.506;19.158;2022-10-31T21:23:17;44.00;;;19.73;;
67571;SDS011;54397;47.506;19.158;2022-10-31T21:26:42;41.42;;;19.23;;
67571;SDS011;54397;47.506;19.158;2022-10-31T21:30:05;41.75;;;19.33;;
67571;SDS011;54397;47.506;19.158;2022-10-31T21:33:32;38.28;;;18.02;;
67571;SDS011;54397;47.506;19.158;2022-10-31T21:36:57;42.28;;;19.70;;
67571;SDS011;54397;47.506;19.158;2022-10-31T21:40:21;37.05;;;15.90;;
67571;SDS011;54397;47.506;19.158;2022-10-31T21:43:43;34.42;;;17.13;;
67571;SDS011;54397;47.506;19.158;2022-10-31T21:47:05;34.30;;;15.75;;
67571;SDS011;54397;47.506;19.158;2022-10-31T21:50:27;38.42;;;16.92;;
67571;SDS011;54397;47.506;19.158;2022-10-31T21:53:51;35.15;;;15.60;;
67571;SDS011;54397;47.506;19.158;2022-10-31T21:57:32;41.00;;;18.83;;
67571;SDS011;54397;47.506;19.158;2022-10-31T22:00:53;36.40;;;16.75;;
67571;SDS011;54397;47.506;19.158;2022-10-31T22:04:15;40.08;;;17.40;;
67571;SDS011;54397;47.506;19.158;2022-10-31T22:07:37;37.47;;;18.10;;
67571;SDS011;54397;47.506;19.158;2022-10-31T22:11:05;41.13;;;18.05;;
67571;SDS011;54397;47.506;19.158;2022-10-31T22:14:30;36.42;;;17.35;;
67571;SDS011;54397;47.506;19.158;2022-10-31T22:17:52;45.85;;;18.70;;
67571;SDS011;54397;47.506;19.158;2022-10-31T22:21:15;41.03;;;18.67;;
67571;SDS011;54397;47.506;19.158;2022-10-31T22:24:38;43.67;;;19.95;;
67571;SDS011;54397;47.506;19.158;2022-10-31T22:27:59;48.30;;;19.52;;
67571;SDS011;54397;47.506;19.158;2022-10-31T22:31:27;41.03;;;19.38;;